sensor_id;sensor_type;location;lat;lon;timestamp;temperature;humidity
45843;DHT22;31563;51.744;8.252;2023-08-31T00:02:16;18.00;73.80
45843;DHT22;31563;51.744;8.252;2023-08-31T00:04:44;18.00;73.90
45843;DHT22;31563;51.744;8.252;2023-08-31T00:07:12;18.00;73.90
45843;DHT22;31563;51.744;8.252;2023-08-31T00:09:40;18.00;73.90
45843;DHT22;31563;51.744;8.252;2023-08-31T00:12:08;18.00;73.80
45843;DHT22;31563;51.744;8.252;2023-08-31T00:14:35;17.90;73.80
45843;DHT22;31563;51.744;8.252;2023-08-31T00:17:05;17.90;73.80
45843;DHT22;31563;51.744;8.252;2023-08-31T00:19:33;17.90;73.90
45843;DHT22;31563;51.744;8.252;2023-08-31T00:22:02;17.90;73.80
45843;DHT22;31563;51.744;8.252;2023-08-31T00:24:30;17.90;73.80
45843;DHT22;31563;51.744;8.252;2023-08-31T00:27:03;17.80;73.70
45843;DHT22;31563;51.744;8.252;2023-08-31T00:29:33;17.90;73.80
45843;DHT22;31563;51.744;8.252;2023-08-31T00:32:01;17.80;73.70
45843;DHT22;31563;51.744;8.252;2023-08-31T00:34:31;17.80;73.70
45843;DHT22;31563;51.744;8.252;2023-08-31T00:36:59;17.80;73.70
45843;DHT22;31563;51.744;8.252;2023-08-31T00:39:26;17.80;73.70
45843;DHT22;31563;51.744;8.252;2023-08-31T00:41:54;17.80;73.80
45843;DHT22;31563;51.744;8.252;2023-08-31T00:44:22;17.80;73.70
45843;DHT22;31563;51.744;8.252;2023-08-31T00:46:51;17.80;73.60
45843;DHT22;31563;51.744;8.252;2023-08-31T00:49:19;17.70;73.60
45843;DHT22;31563;51.744;8.252;2023-08-31T00:51:48;17.70;73.60
45843;DHT22;31563;51.744;8.252;2023-08-31T00:54:17;17.70;73.60
45843;DHT22;31563;51.744;8.252;2023-08-31T00:56:46;17.70;73.60
45843;DHT22;31563;51.744;8.252;2023-08-31T00:59:13;17.80;73.60
45843;DHT22;31563;51.744;8.252;2023-08-31T01:01:51;17.80;73.50
45843;DHT22;31563;51.744;8.252;2023-08-31T01:04:29;17.80;73.50
45843;DHT22;31563;51.744;8.252;2023-08-31T01:07:04;17.70;73.40
45843;DHT22;31563;51.744;8.252;2023-08-31T01:09:40;17.70;73.40
45843;DHT22;31563;51.744;8.252;2023-08-31T01:12:15;17.80;73.40
45843;DHT22;31563;51.744;8.252;2023-08-31T01:14:47;17.70;73.50
45843;DHT22;31563;51.744;8.252;2023-08-31T01:17:20;17.70;73.50
45843;DHT22;31563;51.744;8.252;2023-08-31T01:19:51;17.70;73.50
45843;DHT22;31563;51.744;8.252;2023-08-31T01:22:24;17.70;73.50
45843;DHT22;31563;51.744;8.252;2023-08-31T01:24:57;17.70;73.50
45843;DHT22;31563;51.744;8.252;2023-08-31T01:27:28;17.70;73.50
45843;DHT22;31563;51.744;8.252;2023-08-31T01:29:57;17.70;73.50
45843;DHT22;31563;51.744;8.252;2023-08-31T01:32:25;17.70;73.50
45843;DHT22;31563;51.744;8.252;2023-08-31T01:34:53;17.70;73.50
45843;DHT22;31563;51.744;8.252;2023-08-31T01:37:29;17.70;73.50
45843;DHT22;31563;51.744;8.252;2023-08-31T01:40:04;17.70;73.70
45843;DHT22;31563;51.744;8.252;2023-08-31T01:42:34;17.70;73.70
45843;DHT22;31563;51.744;8.252;2023-08-31T01:45:03;17.70;73.60
45843;DHT22;31563;51.744;8.252;2023-08-31T01:47:32;17.70;73.70
45843;DHT22;31563;51.744;8.252;2023-08-31T01:50:00;17.60;73.70
45843;DHT22;31563;51.744;8.252;2023-08-31T01:52:28;17.60;73.80
45843;DHT22;31563;51.744;8.252;2023-08-31T01:54:57;17.60;73.80
45843;DHT22;31563;51.744;8.252;2023-08-31T01:57:26;17.60;73.80
45843;DHT22;31563;51.744;8.252;2023-08-31T01:59:54;17.60;73.90
45843;DHT22;31563;51.744;8.252;2023-08-31T02:02:22;17.60;73.90
45843;DHT22;31563;51.744;8.252;2023-08-31T02:04:50;17.60;73.90
45843;DHT22;31563;51.744;8.252;2023-08-31T02:07:18;17.60;73.90
45843;DHT22;31563;51.744;8.252;2023-08-31T02:09:46;17.70;73.90
45843;DHT22;31563;51.744;8.252;2023-08-31T02:12:14;17.60;73.90
45843;DHT22;31563;51.744;8.252;2023-08-31T02:14:43;17.60;74.00
45843;DHT22;31563;51.744;8.252;2023-08-31T02:17:11;17.60;74.00
45843;DHT22;31563;51.744;8.252;2023-08-31T02:19:39;17.60;74.00
45843;DHT22;31563;51.744;8.252;2023-08-31T02:22:08;17.50;74.00
45843;DHT22;31563;51.744;8.252;2023-08-31T02:24:35;17.50;74.10
45843;DHT22;31563;51.744;8.252;2023-08-31T02:27:04;17.60;74.40
45843;DHT22;31563;51.744;8.252;2023-08-31T02:29:31;17.60;76.10
45843;DHT22;31563;51.744;8.252;2023-08-31T02:32:04;17.70;75.60
45843;DHT22;31563;51.744;8.252;2023-08-31T02:34:31;17.70;75.40
45843;DHT22;31563;51.744;8.252;2023-08-31T02:36:59;17.60;75.40
45843;DHT22;31563;51.744;8.252;2023-08-31T02:39:27;17.60;75.30
45843;DHT22;31563;51.744;8.252;2023-08-31T02:41:55;17.60;75.90
45843;DHT22;31563;51.744;8.252;2023-08-31T02:44:23;17.60;75.40
45843;DHT22;31563;51.744;8.252;2023-08-31T02:46:51;17.50;75.40
45843;DHT22;31563;51.744;8.252;2023-08-31T02:49:20;17.50;75.30
45843;DHT22;31563;51.744;8.252;2023-08-31T02:51:48;17.50;75.30
45843;DHT22;31563;51.744;8.252;2023-08-31T02:54:16;17.50;75.40
45843;DHT22;31563;51.744;8.252;2023-08-31T02:56:45;17.40;75.40
45843;DHT22;31563;51.744;8.252;2023-08-31T02:59:13;17.40;75.40
45843;DHT22;31563;51.744;8.252;2023-08-31T03:01:41;17.40;75.30
45843;DHT22;31563;51.744;8.252;2023-08-31T03:04:13;17.40;75.40
45843;DHT22;31563;51.744;8.252;2023-08-31T03:06:42;17.40;75.30
45843;DHT22;31563;51.744;8.252;2023-08-31T03:09:10;17.40;75.20
45843;DHT22;31563;51.744;8.252;2023-08-31T03:11:38;17.40;75.20
45843;DHT22;31563;51.744;8.252;2023-08-31T03:14:05;17.50;75.30
45843;DHT22;31563;51.744;8.252;2023-08-31T03:16:33;17.40;75.20
45843;DHT22;31563;51.744;8.252;2023-08-31T03:19:01;17.40;75.20
45843;DHT22;31563;51.744;8.252;2023-08-31T03:21:29;17.40;75.20
45843;DHT22;31563;51.744;8.252;2023-08-31T03:23:59;17.40;75.20
45843;DHT22;31563;51.744;8.252;2023-08-31T03:26:27;17.40;75.10
45843;DHT22;31563;51.744;8.252;2023-08-31T03:28:55;17.30;75.10
45843;DHT22;31563;51.744;8.252;2023-08-31T03:31:23;17.30;75.10
45843;DHT22;31563;51.744;8.252;2023-08-31T03:33:51;17.30;75.20
45843;DHT22;31563;51.744;8.252;2023-08-31T03:36:19;17.20;75.00
45843;DHT22;31563;51.744;8.252;2023-08-31T03:38:47;17.20;75.10
45843;DHT22;31563;51.744;8.252;2023-08-31T03:41:16;17.20;75.00
45843;DHT22;31563;51.744;8.252;2023-08-31T03:43:44;17.20;75.10
45843;DHT22;31563;51.744;8.252;2023-08-31T03:46:11;17.10;75.00
45843;DHT22;31563;51.744;8.252;2023-08-31T03:48:40;17.20;74.90
45843;DHT22;31563;51.744;8.252;2023-08-31T03:51:07;17.10;74.90
45843;DHT22;31563;51.744;8.252;2023-08-31T03:53:35;17.10;74.90
45843;DHT22;31563;51.744;8.252;2023-08-31T03:56:03;17.10;74.90
45843;DHT22;31563;51.744;8.252;2023-08-31T03:58:33;17.10;74.80
45843;DHT22;31563;51.744;8.252;2023-08-31T04:01:00;17.00;75.00
45843;DHT22;31563;51.744;8.252;2023-08-31T04:03:28;17.00;75.00
45843;DHT22;31563;51.744;8.252;2023-08-31T04:05:56;17.00;75.00
45843;DHT22;31563;51.744;8.252;2023-08-31T04:08:24;17.00;74.90
45843;DHT22;31563;51.744;8.252;2023-08-31T04:10:52;17.00;74.90
45843;DHT22;31563;51.744;8.252;2023-08-31T04:13:20;17.00;74.80
45843;DHT22;31563;51.744;8.252;2023-08-31T04:15:49;17.00;74.70
45843;DHT22;31563;51.744;8.252;2023-08-31T04:18:17;17.00;74.70
45843;DHT22;31563;51.744;8.252;2023-08-31T04:20:49;16.90;74.60
45843;DHT22;31563;51.744;8.252;2023-08-31T04:23:19;16.90;74.70
45843;DHT22;31563;51.744;8.252;2023-08-31T04:25:48;16.90;74.70
45843;DHT22;31563;51.744;8.252;2023-08-31T04:28:18;16.90;74.70
45843;DHT22;31563;51.744;8.252;2023-08-31T04:30:46;16.90;74.70
45843;DHT22;31563;51.744;8.252;2023-08-31T04:33:15;16.90;74.70
45843;DHT22;31563;51.744;8.252;2023-08-31T04:35:43;16.90;74.70
45843;DHT22;31563;51.744;8.252;2023-08-31T04:38:11;16.90;74.90
45843;DHT22;31563;51.744;8.252;2023-08-31T04:40:39;16.90;74.80
45843;DHT22;31563;51.744;8.252;2023-08-31T04:43:07;17.00;74.90
45843;DHT22;31563;51.744;8.252;2023-08-31T04:45:35;17.00;74.80
45843;DHT22;31563;51.744;8.252;2023-08-31T04:48:04;17.00;74.90
45843;DHT22;31563;51.744;8.252;2023-08-31T04:50:33;17.00;74.90
45843;DHT22;31563;51.744;8.252;2023-08-31T04:53:01;17.00;74.80
45843;DHT22;31563;51.744;8.252;2023-08-31T04:55:30;17.00;76.90
45843;DHT22;31563;51.744;8.252;2023-08-31T04:57:58;17.30;77.10
45843;DHT22;31563;51.744;8.252;2023-08-31T05:00:26;17.00;76.30
45843;DHT22;31563;51.744;8.252;2023-08-31T05:02:53;16.70;76.60
45843;DHT22;31563;51.744;8.252;2023-08-31T05:05:21;16.60;76.00
45843;DHT22;31563;51.744;8.252;2023-08-31T05:07:51;16.60;77.00
45843;DHT22;31563;51.744;8.252;2023-08-31T05:10:18;16.40;76.90
45843;DHT22;31563;51.744;8.252;2023-08-31T05:12:46;16.50;77.90
45843;DHT22;31563;51.744;8.252;2023-08-31T05:15:14;16.80;78.60
45843;DHT22;31563;51.744;8.252;2023-08-31T05:17:42;16.80;77.10
45843;DHT22;31563;51.744;8.252;2023-08-31T05:20:11;16.80;76.80
45843;DHT22;31563;51.744;8.252;2023-08-31T05:22:39;16.80;75.80
45843;DHT22;31563;51.744;8.252;2023-08-31T05:25:08;16.90;76.40
45843;DHT22;31563;51.744;8.252;2023-08-31T05:27:36;17.00;76.60
45843;DHT22;31563;51.744;8.252;2023-08-31T05:30:05;17.00;75.30
45843;DHT22;31563;51.744;8.252;2023-08-31T05:32:33;17.10;74.80
45843;DHT22;31563;51.744;8.252;2023-08-31T05:35:01;17.20;74.50
45843;DHT22;31563;51.744;8.252;2023-08-31T05:37:32;17.20;74.20
45843;DHT22;31563;51.744;8.252;2023-08-31T05:40:01;17.20;74.10
45843;DHT22;31563;51.744;8.252;2023-08-31T05:42:34;17.20;73.90
45843;DHT22;31563;51.744;8.252;2023-08-31T05:45:02;17.30;73.80
45843;DHT22;31563;51.744;8.252;2023-08-31T05:47:30;17.60;78.00
45843;DHT22;31563;51.744;8.252;2023-08-31T05:49:58;18.10;77.30
45843;DHT22;31563;51.744;8.252;2023-08-31T05:52:26;17.80;73.90
45843;DHT22;31563;51.744;8.252;2023-08-31T05:54:54;17.40;73.30
45843;DHT22;31563;51.744;8.252;2023-08-31T05:57:22;17.30;73.70
45843;DHT22;31563;51.744;8.252;2023-08-31T05:59:51;17.30;73.50
45843;DHT22;31563;51.744;8.252;2023-08-31T06:02:19;17.30;73.50
45843;DHT22;31563;51.744;8.252;2023-08-31T06:04:47;17.20;73.50
45843;DHT22;31563;51.744;8.252;2023-08-31T06:07:15;17.10;74.10
45843;DHT22;31563;51.744;8.252;2023-08-31T06:09:43;17.30;76.30
45843;DHT22;31563;51.744;8.252;2023-08-31T06:12:11;17.30;74.10
45843;DHT22;31563;51.744;8.252;2023-08-31T06:14:39;17.50;74.90
45843;DHT22;31563;51.744;8.252;2023-08-31T06:17:08;17.60;73.80
45843;DHT22;31563;51.744;8.252;2023-08-31T06:19:38;17.70;74.20
45843;DHT22;31563;51.744;8.252;2023-08-31T06:22:06;17.50;73.70
45843;DHT22;31563;51.744;8.252;2023-08-31T06:24:33;17.30;73.80
45843;DHT22;31563;51.744;8.252;2023-08-31T06:27:03;17.00;74.30
45843;DHT22;31563;51.744;8.252;2023-08-31T06:29:31;16.70;75.30
45843;DHT22;31563;51.744;8.252;2023-08-31T06:31:59;16.50;76.00
45843;DHT22;31563;51.744;8.252;2023-08-31T06:34:28;16.50;76.20
45843;DHT22;31563;51.744;8.252;2023-08-31T06:36:57;17.00;75.50
45843;DHT22;31563;51.744;8.252;2023-08-31T06:39:25;17.30;74.20
45843;DHT22;31563;51.744;8.252;2023-08-31T06:41:53;17.30;73.90
45843;DHT22;31563;51.744;8.252;2023-08-31T06:44:21;17.20;74.20
45843;DHT22;31563;51.744;8.252;2023-08-31T06:46:49;17.20;74.50
45843;DHT22;31563;51.744;8.252;2023-08-31T06:49:18;17.20;74.20
45843;DHT22;31563;51.744;8.252;2023-08-31T06:51:48;17.30;74.10
45843;DHT22;31563;51.744;8.252;2023-08-31T06:54:15;17.40;74.00
45843;DHT22;31563;51.744;8.252;2023-08-31T06:56:43;17.50;74.70
45843;DHT22;31563;51.744;8.252;2023-08-31T06:59:11;17.60;72.90
45843;DHT22;31563;51.744;8.252;2023-08-31T07:01:39;17.70;72.80
45843;DHT22;31563;51.744;8.252;2023-08-31T07:04:07;17.80;72.80
45843;DHT22;31563;51.744;8.252;2023-08-31T07:06:35;17.90;72.60
45843;DHT22;31563;51.744;8.252;2023-08-31T07:09:05;18.00;72.30
45843;DHT22;31563;51.744;8.252;2023-08-31T07:11:34;18.20;72.10
45843;DHT22;31563;51.744;8.252;2023-08-31T07:14:02;18.40;70.70
45843;DHT22;31563;51.744;8.252;2023-08-31T07:16:30;18.60;70.00
45843;DHT22;31563;51.744;8.252;2023-08-31T07:18:58;18.70;69.80
45843;DHT22;31563;51.744;8.252;2023-08-31T07:21:26;18.60;69.40
45843;DHT22;31563;51.744;8.252;2023-08-31T07:23:54;19.10;69.90
45843;DHT22;31563;51.744;8.252;2023-08-31T07:26:23;19.30;69.60
45843;DHT22;31563;51.744;8.252;2023-08-31T07:28:51;19.50;68.90
45843;DHT22;31563;51.744;8.252;2023-08-31T07:31:19;19.70;69.00
45843;DHT22;31563;51.744;8.252;2023-08-31T07:33:47;20.00;67.50
45843;DHT22;31563;51.744;8.252;2023-08-31T07:36:15;20.00;67.10
45843;DHT22;31563;51.744;8.252;2023-08-31T07:38:43;20.00;66.80
45843;DHT22;31563;51.744;8.252;2023-08-31T07:41:11;19.90;67.00
45843;DHT22;31563;51.744;8.252;2023-08-31T07:43:40;19.90;66.90
45843;DHT22;31563;51.744;8.252;2023-08-31T07:46:20;19.60;67.60
45843;DHT22;31563;51.744;8.252;2023-08-31T07:48:48;19.20;68.90
45843;DHT22;31563;51.744;8.252;2023-08-31T07:51:17;18.80;70.00
45843;DHT22;31563;51.744;8.252;2023-08-31T07:53:49;18.70;70.70
45843;DHT22;31563;51.744;8.252;2023-08-31T07:56:17;18.80;73.40
45843;DHT22;31563;51.744;8.252;2023-08-31T07:58:47;19.00;72.10
45843;DHT22;31563;51.744;8.252;2023-08-31T08:01:14;19.30;72.10
45843;DHT22;31563;51.744;8.252;2023-08-31T08:03:43;20.00;70.30
45843;DHT22;31563;51.744;8.252;2023-08-31T08:06:10;20.50;67.90
45843;DHT22;31563;51.744;8.252;2023-08-31T08:08:38;20.70;68.70
45843;DHT22;31563;51.744;8.252;2023-08-31T08:11:06;21.50;67.60
45843;DHT22;31563;51.744;8.252;2023-08-31T08:13:34;21.90;65.90
45843;DHT22;31563;51.744;8.252;2023-08-31T08:16:03;22.50;65.30
45843;DHT22;31563;51.744;8.252;2023-08-31T08:18:31;23.10;62.40
45843;DHT22;31563;51.744;8.252;2023-08-31T08:21:00;24.10;60.00
45843;DHT22;31563;51.744;8.252;2023-08-31T08:23:28;24.80;57.90
45843;DHT22;31563;51.744;8.252;2023-08-31T08:25:55;24.80;57.40
45843;DHT22;31563;51.744;8.252;2023-08-31T08:28:26;25.10;55.60
45843;DHT22;31563;51.744;8.252;2023-08-31T08:30:54;24.90;55.90
45843;DHT22;31563;51.744;8.252;2023-08-31T08:33:24;24.50;56.10
45843;DHT22;31563;51.744;8.252;2023-08-31T08:35:56;24.30;56.90
45843;DHT22;31563;51.744;8.252;2023-08-31T08:38:24;23.90;57.80
45843;DHT22;31563;51.744;8.252;2023-08-31T08:40:52;23.10;59.00
45843;DHT22;31563;51.744;8.252;2023-08-31T08:43:25;22.50;59.40
45843;DHT22;31563;51.744;8.252;2023-08-31T08:45:54;21.90;61.20
45843;DHT22;31563;51.744;8.252;2023-08-31T08:48:27;21.60;62.60
45843;DHT22;31563;51.744;8.252;2023-08-31T08:50:55;21.40;63.00
45843;DHT22;31563;51.744;8.252;2023-08-31T08:53:23;21.30;63.50
45843;DHT22;31563;51.744;8.252;2023-08-31T08:55:51;21.30;63.90
45843;DHT22;31563;51.744;8.252;2023-08-31T08:58:19;21.30;63.90
45843;DHT22;31563;51.744;8.252;2023-08-31T09:00:47;21.20;64.10
45843;DHT22;31563;51.744;8.252;2023-08-31T09:03:15;21.00;64.50
45843;DHT22;31563;51.744;8.252;2023-08-31T09:05:45;20.90;64.90
45843;DHT22;31563;51.744;8.252;2023-08-31T09:08:13;20.70;65.50
45843;DHT22;31563;51.744;8.252;2023-08-31T09:10:43;20.70;65.80
45843;DHT22;31563;51.744;8.252;2023-08-31T09:13:12;20.90;65.50
45843;DHT22;31563;51.744;8.252;2023-08-31T09:15:43;21.20;64.80
45843;DHT22;31563;51.744;8.252;2023-08-31T09:18:15;21.60;63.80
45843;DHT22;31563;51.744;8.252;2023-08-31T09:20:46;22.10;62.80
45843;DHT22;31563;51.744;8.252;2023-08-31T09:23:14;22.80;61.10
45843;DHT22;31563;51.744;8.252;2023-08-31T09:25:43;24.10;58.00
45843;DHT22;31563;51.744;8.252;2023-08-31T09:28:12;24.90;55.80
45843;DHT22;31563;51.744;8.252;2023-08-31T09:30:42;25.30;54.80
45843;DHT22;31563;51.744;8.252;2023-08-31T09:33:13;26.10;53.20
45843;DHT22;31563;51.744;8.252;2023-08-31T09:35:48;26.10;52.40
45843;DHT22;31563;51.744;8.252;2023-08-31T09:38:18;25.60;53.60
45843;DHT22;31563;51.744;8.252;2023-08-31T09:40:46;26.90;53.10
45843;DHT22;31563;51.744;8.252;2023-08-31T09:43:19;28.10;49.40
45843;DHT22;31563;51.744;8.252;2023-08-31T09:45:49;28.40;48.00
45843;DHT22;31563;51.744;8.252;2023-08-31T09:48:17;28.70;47.60
45843;DHT22;31563;51.744;8.252;2023-08-31T09:50:45;27.80;48.10
45843;DHT22;31563;51.744;8.252;2023-08-31T09:53:16;27.00;49.70
45843;DHT22;31563;51.744;8.252;2023-08-31T09:55:44;28.20;49.20
45843;DHT22;31563;51.744;8.252;2023-08-31T09:58:17;30.10;44.10
45843;DHT22;31563;51.744;8.252;2023-08-31T10:00:45;31.20;42.70
45843;DHT22;31563;51.744;8.252;2023-08-31T10:03:14;31.40;41.70
45843;DHT22;31563;51.744;8.252;2023-08-31T10:05:46;33.10;40.80
45843;DHT22;31563;51.744;8.252;2023-08-31T10:08:17;34.70;39.00
45843;DHT22;31563;51.744;8.252;2023-08-31T10:10:45;32.80;38.70
45843;DHT22;31563;51.744;8.252;2023-08-31T10:13:14;30.90;41.10
45843;DHT22;31563;51.744;8.252;2023-08-31T10:15:43;29.10;44.20
45843;DHT22;31563;51.744;8.252;2023-08-31T10:18:11;27.80;46.40
45843;DHT22;31563;51.744;8.252;2023-08-31T10:20:42;27.10;47.80
45843;DHT22;31563;51.744;8.252;2023-08-31T10:23:11;27.00;48.90
45843;DHT22;31563;51.744;8.252;2023-08-31T10:26:02;26.90;49.00
45843;DHT22;31563;51.744;8.252;2023-08-31T10:28:39;26.80;49.50
45843;DHT22;31563;51.744;8.252;2023-08-31T10:31:09;27.20;48.90
45843;DHT22;31563;51.744;8.252;2023-08-31T10:33:40;29.90;46.80
45843;DHT22;31563;51.744;8.252;2023-08-31T10:36:11;31.30;41.90
45843;DHT22;31563;51.744;8.252;2023-08-31T10:38:41;31.80;41.80
45843;DHT22;31563;51.744;8.252;2023-08-31T10:41:21;32.00;41.80
45843;DHT22;31563;51.744;8.252;2023-08-31T10:43:50;34.10;38.40
45843;DHT22;31563;51.744;8.252;2023-08-31T10:46:25;32.00;39.50
45843;DHT22;31563;51.744;8.252;2023-08-31T10:48:55;32.80;40.90
45843;DHT22;31563;51.744;8.252;2023-08-31T10:51:24;35.70;36.50
45843;DHT22;31563;51.744;8.252;2023-08-31T10:53:52;36.90;34.70
45843;DHT22;31563;51.744;8.252;2023-08-31T10:56:21;34.10;35.20
45843;DHT22;31563;51.744;8.252;2023-08-31T10:58:57;31.50;38.40
45843;DHT22;31563;51.744;8.252;2023-08-31T11:01:51;29.50;41.80
45843;DHT22;31563;51.744;8.252;2023-08-31T11:04:20;28.00;44.40
45843;DHT22;31563;51.744;8.252;2023-08-31T11:06:48;27.10;45.90
45843;DHT22;31563;51.744;8.252;2023-08-31T11:09:20;26.50;46.80
45843;DHT22;31563;51.744;8.252;2023-08-31T11:11:50;26.00;47.70
45843;DHT22;31563;51.744;8.252;2023-08-31T11:14:18;25.70;48.40
45843;DHT22;31563;51.744;8.252;2023-08-31T11:16:45;25.90;48.50
45843;DHT22;31563;51.744;8.252;2023-08-31T11:19:13;30.20;44.20
45843;DHT22;31563;51.744;8.252;2023-08-31T11:21:41;31.70;39.40
45843;DHT22;31563;51.744;8.252;2023-08-31T11:24:10;31.40;39.80
45843;DHT22;31563;51.744;8.252;2023-08-31T11:26:38;30.90;40.10
45843;DHT22;31563;51.744;8.252;2023-08-31T11:29:08;30.60;40.50
45843;DHT22;31563;51.744;8.252;2023-08-31T11:31:38;30.70;40.40
45843;DHT22;31563;51.744;8.252;2023-08-31T11:34:07;31.50;39.70
45843;DHT22;31563;51.744;8.252;2023-08-31T11:36:39;33.00;37.40
45843;DHT22;31563;51.744;8.252;2023-08-31T11:39:09;35.90;35.30
45843;DHT22;31563;51.744;8.252;2023-08-31T11:41:37;38.10;33.50
45843;DHT22;31563;51.744;8.252;2023-08-31T11:44:11;38.90;31.80
45843;DHT22;31563;51.744;8.252;2023-08-31T11:46:39;39.50;31.60
45843;DHT22;31563;51.744;8.252;2023-08-31T11:49:09;40.20;30.90
45843;DHT22;31563;51.744;8.252;2023-08-31T11:51:39;40.60;30.70
45843;DHT22;31563;51.744;8.252;2023-08-31T11:54:08;40.90;30.40
45843;DHT22;31563;51.744;8.252;2023-08-31T11:56:39;41.30;30.10
45843;DHT22;31563;51.744;8.252;2023-08-31T11:59:09;41.80;30.00
45843;DHT22;31563;51.744;8.252;2023-08-31T12:01:39;41.80;29.50
45843;DHT22;31563;51.744;8.252;2023-08-31T12:04:12;41.20;29.40
45843;DHT22;31563;51.744;8.252;2023-08-31T12:06:41;41.90;29.60
45843;DHT22;31563;51.744;8.252;2023-08-31T12:09:10;39.50;30.70
45843;DHT22;31563;51.744;8.252;2023-08-31T12:11:38;37.60;32.00
45843;DHT22;31563;51.744;8.252;2023-08-31T12:14:20;39.10;32.40
45843;DHT22;31563;51.744;8.252;2023-08-31T12:16:48;39.70;31.20
45843;DHT22;31563;51.744;8.252;2023-08-31T12:19:16;40.90;29.90
45843;DHT22;31563;51.744;8.252;2023-08-31T12:21:46;36.90;29.60
45843;DHT22;31563;51.744;8.252;2023-08-31T12:24:13;33.60;32.90
45843;DHT22;31563;51.744;8.252;2023-08-31T12:26:43;31.50;35.90
45843;DHT22;31563;51.744;8.252;2023-08-31T12:29:11;30.00;36.70
45843;DHT22;31563;51.744;8.252;2023-08-31T12:31:41;29.50;37.30
45843;DHT22;31563;51.744;8.252;2023-08-31T12:34:10;29.20;38.30
45843;DHT22;31563;51.744;8.252;2023-08-31T12:36:37;29.30;39.10
45843;DHT22;31563;51.744;8.252;2023-08-31T12:39:07;28.90;39.10
45843;DHT22;31563;51.744;8.252;2023-08-31T12:41:36;29.00;39.30
45843;DHT22;31563;51.744;8.252;2023-08-31T12:44:05;29.00;39.30
45843;DHT22;31563;51.744;8.252;2023-08-31T12:46:33;29.20;39.00
45843;DHT22;31563;51.744;8.252;2023-08-31T12:49:03;29.00;39.60
45843;DHT22;31563;51.744;8.252;2023-08-31T12:51:31;29.20;39.30
45843;DHT22;31563;51.744;8.252;2023-08-31T12:53:59;29.00;40.10
45843;DHT22;31563;51.744;8.252;2023-08-31T12:56:27;29.20;39.50
45843;DHT22;31563;51.744;8.252;2023-08-31T12:58:54;29.20;39.60
45843;DHT22;31563;51.744;8.252;2023-08-31T13:01:22;29.10;39.70
45843;DHT22;31563;51.744;8.252;2023-08-31T13:03:50;29.30;39.90
45843;DHT22;31563;51.744;8.252;2023-08-31T13:06:20;29.40;39.60
45843;DHT22;31563;51.744;8.252;2023-08-31T13:08:51;29.40;39.60
45843;DHT22;31563;51.744;8.252;2023-08-31T13:11:18;29.70;39.20
45843;DHT22;31563;51.744;8.252;2023-08-31T13:13:50;29.60;39.00
45843;DHT22;31563;51.744;8.252;2023-08-31T13:16:19;29.60;39.40
45843;DHT22;31563;51.744;8.252;2023-08-31T13:18:48;29.80;39.00
45843;DHT22;31563;51.744;8.252;2023-08-31T13:21:16;30.00;38.70
45843;DHT22;31563;51.744;8.252;2023-08-31T13:23:45;30.10;38.80
45843;DHT22;31563;51.744;8.252;2023-08-31T13:26:13;29.20;39.30
45843;DHT22;31563;51.744;8.252;2023-08-31T13:28:41;28.40;40.60
45843;DHT22;31563;51.744;8.252;2023-08-31T13:31:10;28.20;40.90
45843;DHT22;31563;51.744;8.252;2023-08-31T13:33:38;28.30;41.60
45843;DHT22;31563;51.744;8.252;2023-08-31T13:36:06;28.50;40.50
45843;DHT22;31563;51.744;8.252;2023-08-31T13:38:36;28.80;40.10
45843;DHT22;31563;51.744;8.252;2023-08-31T13:41:05;28.40;40.80
45843;DHT22;31563;51.744;8.252;2023-08-31T13:43:34;27.90;41.30
45843;DHT22;31563;51.744;8.252;2023-08-31T13:46:02;27.70;42.20
45843;DHT22;31563;51.744;8.252;2023-08-31T13:48:31;27.30;43.00
45843;DHT22;31563;51.744;8.252;2023-08-31T13:50:59;27.00;43.30
45843;DHT22;31563;51.744;8.252;2023-08-31T13:53:27;26.90;44.20
45843;DHT22;31563;51.744;8.252;2023-08-31T13:55:55;26.80;45.20
45843;DHT22;31563;51.744;8.252;2023-08-31T13:58:24;26.70;45.90
45843;DHT22;31563;51.744;8.252;2023-08-31T14:00:52;26.30;47.30
45843;DHT22;31563;51.744;8.252;2023-08-31T14:03:20;26.00;49.50
45843;DHT22;31563;51.744;8.252;2023-08-31T14:05:50;25.60;49.80
45843;DHT22;31563;51.744;8.252;2023-08-31T14:08:17;25.10;51.30
45843;DHT22;31563;51.744;8.252;2023-08-31T14:10:45;24.80;52.20
45843;DHT22;31563;51.744;8.252;2023-08-31T14:13:13;24.70;54.30
45843;DHT22;31563;51.744;8.252;2023-08-31T14:15:46;24.60;54.00
45843;DHT22;31563;51.744;8.252;2023-08-31T14:18:14;24.30;53.50
45843;DHT22;31563;51.744;8.252;2023-08-31T14:20:42;24.50;54.80
45843;DHT22;31563;51.744;8.252;2023-08-31T14:23:10;24.50;53.80
45843;DHT22;31563;51.744;8.252;2023-08-31T14:25:38;24.40;53.80
45843;DHT22;31563;51.744;8.252;2023-08-31T14:28:06;24.20;54.40
45843;DHT22;31563;51.744;8.252;2023-08-31T14:30:35;24.20;56.20
45843;DHT22;31563;51.744;8.252;2023-08-31T14:33:05;24.10;56.00
45843;DHT22;31563;51.744;8.252;2023-08-31T14:35:36;24.00;57.10
45843;DHT22;31563;51.744;8.252;2023-08-31T14:38:04;23.90;58.20
45843;DHT22;31563;51.744;8.252;2023-08-31T14:40:32;23.70;57.60
45843;DHT22;31563;51.744;8.252;2023-08-31T14:43:11;23.50;58.00
45843;DHT22;31563;51.744;8.252;2023-08-31T14:45:41;23.50;57.20
45843;DHT22;31563;51.744;8.252;2023-08-31T14:48:11;23.70;58.50
45843;DHT22;31563;51.744;8.252;2023-08-31T14:50:42;23.70;57.80
45843;DHT22;31563;51.744;8.252;2023-08-31T14:53:10;23.70;58.20
45843;DHT22;31563;51.744;8.252;2023-08-31T14:55:38;23.70;58.60
45843;DHT22;31563;51.744;8.252;2023-08-31T14:58:06;23.90;59.50
45843;DHT22;31563;51.744;8.252;2023-08-31T15:00:36;23.80;59.00
45843;DHT22;31563;51.744;8.252;2023-08-31T15:03:04;24.60;59.50
45843;DHT22;31563;51.744;8.252;2023-08-31T15:05:34;24.80;55.50
45843;DHT22;31563;51.744;8.252;2023-08-31T15:08:03;24.70;56.30
45843;DHT22;31563;51.744;8.252;2023-08-31T15:10:31;24.40;55.90
45843;DHT22;31563;51.744;8.252;2023-08-31T15:12:59;24.10;57.70
45843;DHT22;31563;51.744;8.252;2023-08-31T15:15:27;23.90;57.60
45843;DHT22;31563;51.744;8.252;2023-08-31T15:17:55;23.70;56.70
45843;DHT22;31563;51.744;8.252;2023-08-31T15:20:24;23.70;58.10
45843;DHT22;31563;51.744;8.252;2023-08-31T15:22:53;23.70;57.80
45843;DHT22;31563;51.744;8.252;2023-08-31T15:25:21;26.20;54.00
45843;DHT22;31563;51.744;8.252;2023-08-31T15:27:49;28.00;50.10
45843;DHT22;31563;51.744;8.252;2023-08-31T15:30:17;27.10;51.00
45843;DHT22;31563;51.744;8.252;2023-08-31T15:32:45;26.30;52.30
45843;DHT22;31563;51.744;8.252;2023-08-31T15:35:13;25.30;53.90
45843;DHT22;31563;51.744;8.252;2023-08-31T15:37:42;24.80;54.70
45843;DHT22;31563;51.744;8.252;2023-08-31T15:40:15;24.20;55.20
45843;DHT22;31563;51.744;8.252;2023-08-31T15:42:43;23.90;57.10